Time;durP1;ratioP1;P1;durP2;ratioP2;P2;SDS_P1;SDS_P2;PMS_P1;PMS_P2;Temp;Humidity;BMP_temperature;BMP_pressure;BME280_temperature;BME280_humidity;BME280_pressure;Samples;Min_cycle;Max_cycle;Signal;HPM_P1;HPM_P2
2022/10/28 00:02:27;;;;;;;18.88;4.97;;;14.40;1.00;;;;;;6275800;22;20102;-86
2022/10/28 00:05:14;;;;;;;18.40;5.47;;;14.30;1.00;;;;;;6278494;22;20483;-86
2022/10/28 00:08:01;;;;;;;13.23;5.00;;;14.20;1.00;;;;;;6279273;22;20023;-86
2022/10/28 00:10:48;;;;;;;10.63;4.75;;;14.20;1.00;;;;;;6277386;22;20429;-86
2022/10/28 00:13:36;;;;;;;12.95;4.97;;;14.10;1.00;;;;;;6278347;22;20030;-86
2022/10/28 00:16:26;;;;;;;13.25;4.82;;;14.00;1.00;;;;;;6277443;22;20030;-85
2022/10/28 00:19:16;;;;;;;11.30;5.15;;;13.90;1.00;;;;;;6256152;22;20024;-86
2022/10/28 00:22:03;;;;;;;22.55;5.88;;;13.70;44.50;;;;;;6277682;22;20027;-84
2022/10/28 00:24:53;;;;;;;16.48;5.03;;;13.50;99.90;;;;;;6279385;22;20024;-85
2022/10/28 00:27:40;;;;;;;13.13;5.90;;;13.60;99.90;;;;;;6281365;22;20028;-86
2022/10/28 00:30:30;;;;;;;17.02;5.43;;;13.70;99.90;;;;;;6291786;22;20023;-85
2022/10/28 00:33:21;;;;;;;18.15;6.45;;;13.80;99.90;;;;;;6308986;22;20023;-85
2022/10/28 00:36:18;;;;;;;14.93;5.97;;;13.70;99.90;;;;;;6308677;22;20031;-85
2022/10/28 00:39:11;;;;;;;18.45;5.78;;;13.70;99.90;;;;;;6309854;22;20123;-86
2022/10/28 00:42:02;;;;;;;18.35;5.45;;;13.80;99.90;;;;;;6309367;22;20109;-85
2022/10/28 00:44:59;;;;;;;15.20;5.78;;;14.00;99.90;;;;;;6310320;22;20035;-85
2022/10/28 00:47:56;;;;;;;10.57;4.80;;;14.20;99.90;;;;;;6309554;22;20019;-85
2022/10/28 00:50:53;;;;;;;15.23;5.20;;;14.30;88.30;;;;;;6287889;22;20287;-85
2022/10/28 00:53:42;;;;;;;11.63;5.20;;;14.30;35.60;;;;;;6310830;22;20034;-85
2022/10/28 00:56:39;;;;;;;15.50;5.43;;;14.20;21.80;;;;;;6287639;22;20037;-84
2022/10/28 00:59:35;;;;;;;14.32;5.85;;;14.20;16.20;;;;;;6310218;22;20098;-85
2022/10/28 01:02:22;;;;;;;17.15;5.43;;;14.20;12.40;;;;;;6308245;22;20156;-86
2022/10/28 01:05:12;;;;;;;12.48;5.18;;;14.30;9.10;;;;;;6306507;22;20034;-86
2022/10/28 01:08:01;;;;;;;10.95;4.63;;;14.30;1.00;;;;;;6310261;22;20098;-86
2022/10/28 01:11:15;;;;;;;19.23;5.63;;;14.30;1.00;;;;;;6310129;22;20024;-86
2022/10/28 01:14:25;;;;;;;12.70;4.70;;;14.30;1.00;;;;;;6310600;22;20098;-86
2022/10/28 01:17:30;;;;;;;18.02;4.70;;;14.20;1.00;;;;;;6306705;22;20097;-85
2022/10/28 01:20:53;;;;;;;15.98;5.38;;;14.10;1.00;;;;;;6308733;22;20051;-85
2022/10/28 01:24:12;;;;;;;18.33;5.50;;;14.00;13.30;;;;;;6156448;23;20109;-85
2022/10/28 01:27:17;;;;;;;16.15;5.55;;;13.90;41.50;;;;;;6309195;22;20027;-86
2022/10/28 01:30:07;;;;;;;17.17;5.88;;;13.80;86.50;;;;;;6309725;22;20019;-86
2022/10/28 01:33:19;;;;;;;20.52;5.28;;;13.70;99.90;;;;;;6309390;22;20034;-85
2022/10/28 01:36:10;;;;;;;15.18;6.68;;;13.60;99.90;;;;;;6309714;22;20023;-86
2022/10/28 01:39:18;;;;;;;11.88;5.32;;;13.60;99.90;;;;;;6308303;22;20027;-86
2022/10/28 01:42:14;;;;;;;12.43;4.88;;;13.60;99.90;;;;;;6306773;22;20023;-86
2022/10/28 01:45:10;;;;;;;12.77;5.28;;;13.50;99.90;;;;;;6287649;22;20034;-86
2022/10/28 01:48:08;;;;;;;8.15;4.70;;;13.40;99.90;;;;;;6285347;22;20019;-87
2022/10/28 01:51:08;;;;;;;15.70;5.60;;;13.40;99.90;;;;;;6309985;22;20430;-86
2022/10/28 01:54:00;;;;;;;18.10;6.55;;;13.30;99.90;;;;;;6309159;22;20365;-86
2022/10/28 01:56:48;;;;;;;12.15;5.30;;;13.20;99.90;;;;;;6286904;22;20034;-86
2022/10/28 01:59:37;;;;;;;14.55;4.85;;;13.20;99.90;;;;;;6309646;22;20027;-86
2022/10/28 02:02:25;;;;;;;14.10;4.70;;;13.20;99.90;;;;;;6309444;22;20419;-84
2022/10/28 02:05:34;;;;;;;12.45;5.20;;;13.20;99.90;;;;;;6312672;22;20055;-85
2022/10/28 02:08:43;;;;;;;16.00;5.45;;;13.20;99.90;;;;;;6311525;22;20106;-84
2022/10/28 02:11:33;;;;;;;15.15;5.22;;;13.20;99.90;;;;;;6291759;22;20099;-84
2022/10/28 02:14:32;;;;;;;12.07;6.38;;;13.10;99.90;;;;;;6311544;22;20023;-85
2022/10/28 02:17:29;;;;;;;24.23;5.70;;;13.10;99.90;;;;;;6312217;22;20026;-85
2022/10/28 02:20:43;;;;;;;18.88;5.25;;;13.20;99.90;;;;;;6311892;22;20030;-85
2022/10/28 02:23:51;;;;;;;16.48;5.18;;;13.20;99.90;;;;;;6310398;22;20102;-85
2022/10/28 02:26:50;;;;;;;17.30;5.00;;;13.10;99.90;;;;;;6309903;22;20102;-85
2022/10/28 02:29:52;;;;;;;13.77;4.55;;;13.00;99.90;;;;;;6312811;22;20106;-84
2022/10/28 02:32:44;;;;;;;11.75;5.07;;;13.10;99.90;;;;;;6311842;22;20314;-86
2022/10/28 02:35:45;;;;;;;15.15;4.75;;;12.90;99.90;;;;;;6308374;22;20023;-85
2022/10/28 02:38:40;;;;;;;14.73;5.18;;;12.80;99.90;;;;;;6307416;22;20045;-85
2022/10/28 02:41:33;;;;;;;10.90;6.00;;;12.70;1.00;;;;;;6309287;22;20027;-85
2022/10/28 02:44:28;;;;;;;11.23;5.32;;;12.60;1.00;;;;;;6309154;22;20027;-85
2022/10/28 02:47:23;;;;;;;17.80;5.35;;;12.50;1.00;;;;;;6309186;22;20054;-85
2022/10/28 02:50:16;;;;;;;13.77;5.53;;;12.50;53.00;;;;;;6284943;22;20482;-86
2022/10/28 02:53:13;;;;;;;13.48;5.47;;;12.40;99.90;;;;;;6284619;22;20023;-86
2022/10/28 02:56:03;;;;;;;16.48;5.68;;;12.30;99.90;;;;;;6307814;22;20031;-85
2022/10/28 02:58:52;;;;;;;15.85;5.63;;;12.30;99.90;;;;;;6308857;22;20037;-85
2022/10/28 03:01:40;;;;;;;12.43;4.75;;;12.40;99.90;;;;;;6307888;22;20037;-86
2022/10/28 03:04:29;;;;;;;18.17;4.65;;;12.70;99.90;;;;;;6308659;22;20027;-86
2022/10/28 03:07:16;;;;;;;13.88;4.65;;;12.90;99.90;;;;;;6307864;22;20037;-85
2022/10/28 03:10:04;;;;;;;11.60;4.72;;;13.20;1.00;;;;;;6307262;22;20030;-86
2022/10/28 03:12:51;;;;;;;20.92;5.07;;;13.50;1.00;;;;;;6310828;22;20062;-85
2022/10/28 03:15:38;;;;;;;13.05;4.70;;;13.80;99.90;;;;;;6311718;22;20024;-87
2022/10/28 03:18:25;;;;;;;10.18;4.78;;;13.90;99.90;;;;;;6313425;22;20023;-87
2022/10/28 03:21:12;;;;;;;9.70;4.40;;;13.90;99.90;;;;;;6315216;22;20334;-86
2022/10/28 03:24:02;;;;;;;12.43;4.28;;;13.90;80.20;;;;;;6318589;22;20062;-85
2022/10/28 03:26:49;;;;;;;13.02;3.97;;;14.00;31.70;;;;;;6314008;22;20047;-85
2022/10/28 03:29:36;;;;;;;14.25;4.55;;;14.00;9.00;;;;;;6309002;22;20034;-84
2022/10/28 03:32:30;;;;;;;12.77;4.18;;;14.10;1.00;;;;;;6306791;22;20038;-85
2022/10/28 03:35:17;;;;;;;7.25;3.63;;;14.10;1.00;;;;;;6308672;22;20296;-87
2022/10/28 03:38:04;;;;;;;13.45;4.35;;;13.90;31.40;;;;;;6308425;22;20106;-85
2022/10/28 03:40:51;;;;;;;12.60;4.03;;;13.90;49.80;;;;;;6309572;22;20034;-85
2022/10/28 03:43:38;;;;;;;16.13;4.40;;;13.80;91.10;;;;;;6306654;22;20120;-85
2022/10/28 03:46:26;;;;;;;17.00;4.93;;;13.70;99.90;;;;;;6308782;22;20065;-85
2022/10/28 03:49:19;;;;;;;10.32;4.13;;;13.70;99.90;;;;;;6288886;22;20034;-87
2022/10/28 03:52:06;;;;;;;10.80;3.97;;;13.70;99.90;;;;;;6307460;22;20019;-85
2022/10/28 03:54:53;;;;;;;12.45;4.22;;;13.70;99.90;;;;;;6308386;22;20023;-85
2022/10/28 03:57:40;;;;;;;15.98;4.65;;;13.80;94.10;;;;;;6307393;22;20394;-85
2022/10/28 04:00:30;;;;;;;12.25;4.30;;;13.90;56.90;;;;;;6308577;22;20077;-86
2022/10/28 04:03:21;;;;;;;10.07;4.30;;;13.80;79.30;;;;;;6308595;22;20115;-86
2022/10/28 04:06:10;;;;;;;12.77;4.20;;;13.80;96.50;;;;;;6310672;22;20446;-85
2022/10/28 04:08:57;;;;;;;19.73;4.47;;;13.80;85.30;;;;;;6311227;22;20027;-87
2022/10/28 04:11:48;;;;;;;10.35;4.90;;;13.80;87.70;;;;;;6309560;22;20023;-86
2022/10/28 04:14:35;;;;;;;11.18;4.18;;;13.90;59.90;;;;;;6309811;22;20104;-82
2022/10/28 04:17:22;;;;;;;11.45;4.72;;;13.80;98.10;;;;;;6285928;22;20098;-82
2022/10/28 04:20:09;;;;;;;9.10;4.05;;;13.80;99.90;;;;;;6308489;22;20429;-82
2022/10/28 04:22:56;;;;;;;10.65;4.68;;;13.80;99.90;;;;;;6287352;22;20114;-82
2022/10/28 04:25:44;;;;;;;9.52;4.38;;;13.80;99.90;;;;;;6310307;22;20038;-81
2022/10/28 04:28:31;;;;;;;10.65;4.32;;;13.70;99.90;;;;;;6309385;22;20366;-82
2022/10/28 04:31:18;;;;;;;12.20;5.10;;;13.70;99.90;;;;;;6307070;22;20319;-82
2022/10/28 04:34:08;;;;;;;10.98;3.90;;;13.70;99.90;;;;;;6308358;22;20134;-82
2022/10/28 04:36:57;;;;;;;14.15;5.30;;;13.70;99.90;;;;;;6308605;22;20453;-83
2022/10/28 04:39:46;;;;;;;15.45;4.90;;;13.60;99.90;;;;;;6310576;22;20367;-82
2022/10/28 04:42:34;;;;;;;14.02;3.65;;;13.60;99.90;;;;;;6284396;22;20439;-81
2022/10/28 04:45:21;;;;;;;10.52;3.55;;;13.70;99.90;;;;;;6310560;22;20023;-82
2022/10/28 04:48:09;;;;;;;17.10;3.88;;;13.80;99.90;;;;;;6308574;22;20031;-82
2022/10/28 04:50:59;;;;;;;17.25;4.40;;;13.80;99.90;;;;;;6307681;22;20094;-81
2022/10/28 04:53:46;;;;;;;13.50;4.78;;;13.90;99.90;;;;;;6309583;22;20019;-82
2022/10/28 04:56:33;;;;;;;13.20;4.68;;;13.80;99.90;;;;;;6307426;22;20371;-82
2022/10/28 04:59:20;;;;;;;8.95;3.95;;;13.70;99.90;;;;;;6309120;22;20112;-83
2022/10/28 05:02:07;;;;;;;13.60;3.90;;;13.60;91.60;;;;;;6308301;22;20098;-82
2022/10/28 05:04:59;;;;;;;16.75;3.65;;;13.60;28.10;;;;;;6285458;22;20050;-80
2022/10/28 05:07:46;;;;;;;15.82;4.25;;;13.70;1.00;;;;;;6308405;22;20108;-80
2022/10/28 05:10:35;;;;;;;9.55;3.33;;;13.80;1.00;;;;;;6306412;22;20411;-82
2022/10/28 05:13:25;;;;;;;10.48;3.20;;;13.90;1.00;;;;;;6307234;22;20029;-81
2022/10/28 05:16:12;;;;;;;10.77;3.33;;;14.00;1.00;;;;;;6307083;22;20316;-81
2022/10/28 05:19:04;;;;;;;11.00;3.58;;;14.00;1.00;;;;;;6307201;22;20038;-81
2022/10/28 05:21:51;;;;;;;10.60;3.10;;;14.10;99.90;;;;;;6306608;22;20026;-81
2022/10/28 05:24:38;;;;;;;18.45;3.72;;;14.00;1.00;;;;;;6306924;22;20144;-80
2022/10/28 05:27:25;;;;;;;9.30;3.88;;;13.90;1.00;;;;;;6305111;22;20102;-81
2022/10/28 05:30:13;;;;;;;13.52;4.15;;;13.80;1.00;;;;;;6308364;22;20027;-81
2022/10/28 05:33:01;;;;;;;10.23;3.35;;;13.70;1.00;;;;;;6284176;22;20023;-81
2022/10/28 05:35:48;;;;;;;7.40;3.42;;;13.50;1.00;;;;;;6301742;22;20034;-84
2022/10/28 05:38:35;;;;;;;12.02;4.03;;;13.40;1.00;;;;;;6307873;22;20478;-83
2022/10/28 05:41:25;;;;;;;10.82;4.40;;;13.20;1.00;;;;;;6307320;22;20019;-83
2022/10/28 05:44:12;;;;;;;11.65;4.72;;;13.20;45.00;;;;;;6307510;22;20396;-84
2022/10/28 05:46:59;;;;;;;10.35;4.03;;;13.20;92.30;;;;;;6285000;22;20027;-83
2022/10/28 05:49:48;;;;;;;12.98;4.60;;;13.10;99.90;;;;;;6308241;22;20023;-84
2022/10/28 05:52:36;;;;;;;8.18;4.13;;;13.00;99.90;;;;;;6307619;22;20077;-86
2022/10/28 05:55:27;;;;;;;9.63;3.58;;;13.00;99.90;;;;;;6308735;22;20038;-84
2022/10/28 05:58:16;;;;;;;9.60;3.92;;;12.90;99.90;;;;;;6305561;22;20034;-84
2022/10/28 06:01:07;;;;;;;12.82;4.03;;;13.00;99.90;;;;;;6306183;22;20066;-83
2022/10/28 06:03:54;;;;;;;11.50;4.00;;;13.10;99.90;;;;;;6307735;22;20030;-83
2022/10/28 06:06:44;;;;;;;9.95;3.85;;;13.10;99.90;;;;;;6306439;22;20403;-82
2022/10/28 06:09:33;;;;;;;9.77;3.38;;;13.10;97.80;;;;;;6306585;22;20019;-83
2022/10/28 06:12:21;;;;;;;9.68;3.63;;;13.10;57.20;;;;;;6306055;22;20080;-81
2022/10/28 06:15:11;;;;;;;13.38;3.35;;;13.20;32.30;;;;;;6306171;22;20020;-82
2022/10/28 06:18:03;;;;;;;12.00;4.45;;;13.20;1.00;;;;;;6306537;22;20094;-81
2022/10/28 06:20:57;;;;;;;16.77;3.75;;;13.20;1.00;;;;;;6285838;22;20034;-82
2022/10/28 06:23:45;;;;;;;12.60;4.00;;;13.20;1.00;;;;;;6307457;22;20042;-82
2022/10/28 06:26:33;;;;;;;9.13;3.40;;;13.20;1.00;;;;;;6284127;22;20051;-84
2022/10/28 06:29:20;;;;;;;13.32;3.22;;;13.30;13.70;;;;;;6307158;22;20380;-83
2022/10/28 06:32:12;;;;;;;9.90;3.33;;;13.40;1.00;;;;;;6306571;22;20390;-82
2022/10/28 06:35:02;;;;;;;9.77;3.72;;;13.50;1.00;;;;;;6308648;22;20023;-82
2022/10/28 06:37:56;;;;;;;10.85;3.58;;;13.60;1.00;;;;;;6304900;22;20165;-81
2022/10/28 06:40:43;;;;;;;12.32;3.60;;;13.60;1.00;;;;;;6306256;22;20161;-83
2022/10/28 06:43:30;;;;;;;13.27;4.20;;;13.50;19.70;;;;;;6306283;22;20031;-82
2022/10/28 06:46:18;;;;;;;12.23;3.90;;;13.50;38.30;;;;;;6305458;22;20027;-82
2022/10/28 06:49:07;;;;;;;12.85;4.75;;;13.60;1.00;;;;;;6306981;22;20019;-82
2022/10/28 06:51:55;;;;;;;16.00;3.97;;;13.60;33.30;;;;;;6305250;22;20051;-83
2022/10/28 06:54:42;;;;;;;9.63;4.07;;;13.70;52.20;;;;;;6306211;22;20043;-82
2022/10/28 06:57:30;;;;;;;10.10;4.05;;;13.80;30.60;;;;;;6307898;22;20356;-83
2022/10/28 07:00:17;;;;;;;12.70;4.38;;;13.80;21.50;;;;;;6283807;22;20027;-85
2022/10/28 07:03:05;;;;;;;8.55;3.38;;;13.90;12.60;;;;;;6307892;22;20031;-83
2022/10/28 07:05:54;;;;;;;8.98;3.65;;;13.90;31.10;;;;;;6283243;22;20027;-83
2022/10/28 07:08:42;;;;;;;8.43;3.42;;;13.90;51.70;;;;;;6306855;22;20035;-82
2022/10/28 07:11:29;;;;;;;14.10;3.22;;;14.00;55.60;;;;;;6307394;22;20026;-82
2022/10/28 07:14:17;;;;;;;10.23;3.15;;;14.10;1.00;;;;;;6307831;22;20484;-82
2022/10/28 07:17:07;;;;;;;12.00;3.33;;;14.50;1.00;;;;;;6309269;22;20098;-83
2022/10/28 07:19:55;;;;;;;11.13;3.28;;;14.90;99.90;;;;;;6308252;22;20027;-83
2022/10/28 07:22:43;;;;;;;10.77;2.60;;;15.10;99.90;;;;;;6310801;22;20042;-83
2022/10/28 07:25:31;;;;;;;9.20;2.65;;;15.50;99.90;;;;;;6289146;22;20035;-84
2022/10/28 07:28:19;;;;;;;10.85;2.85;;;15.60;99.90;;;;;;6308466;22;20106;-80
2022/10/28 07:31:06;;;;;;;8.20;2.42;;;16.00;99.90;;;;;;6309253;22;20051;-82
2022/10/28 07:33:53;;;;;;;9.25;2.25;;;16.20;99.90;;;;;;6309289;22;20041;-82
2022/10/28 07:36:41;;;;;;;5.80;2.40;;;16.40;99.90;;;;;;6285093;22;20053;-81
2022/10/28 07:39:28;;;;;;;7.35;2.28;;;16.70;99.90;;;;;;6308383;22;20046;-81
2022/10/28 07:42:16;;;;;;;7.35;2.10;;;16.90;99.90;;;;;;6308755;22;20047;-81
2022/10/28 07:45:04;;;;;;;7.05;2.47;;;17.10;99.90;;;;;;6308156;22;20023;-81
2022/10/28 07:47:54;;;;;;;13.93;3.15;;;17.20;99.90;;;;;;6309219;22;20034;-83
2022/10/28 07:50:44;;;;;;;6.85;2.45;;;17.30;98.40;;;;;;6310294;22;20027;-83
2022/10/28 07:53:35;;;;;;;11.52;2.47;;;17.40;96.20;;;;;;6308227;22;20023;-83
2022/10/28 07:56:23;;;;;;;8.15;3.15;;;17.30;99.20;;;;;;6309111;22;20370;-83
2022/10/28 07:59:10;;;;;;;10.55;2.25;;;17.10;99.90;;;;;;6309932;22;20027;-83
2022/10/28 08:01:58;;;;;;;8.43;1.92;;;17.10;99.80;;;;;;6308057;22;20050;-82
2022/10/28 08:04:45;;;;;;;14.43;3.15;;;17.20;99.90;;;;;;6308066;22;20091;-81
2022/10/28 08:07:34;;;;;;;7.07;2.33;;;17.20;96.70;;;;;;6310686;22;20054;-81
2022/10/28 08:10:27;;;;;;;9.35;2.63;;;17.30;95.90;;;;;;6307035;22;20034;-80
2022/10/28 08:13:17;;;;;;;5.78;2.38;;;17.30;99.90;;;;;;6287100;22;20166;-81
2022/10/28 08:16:06;;;;;;;8.40;2.72;;;17.30;93.50;;;;;;6309741;22;20034;-81
2022/10/28 08:18:55;;;;;;;7.35;2.30;;;17.40;93.10;;;;;;6286179;22;20084;-81
2022/10/28 08:21:42;;;;;;;6.72;2.17;;;17.40;91.30;;;;;;6309421;22;20042;-83
2022/10/28 08:24:30;;;;;;;7.35;2.35;;;17.50;90.30;;;;;;6307690;22;20027;-82
2022/10/28 08:27:17;;;;;;;7.88;2.30;;;17.60;85.90;;;;;;6307682;22;20555;-83
2022/10/28 08:30:05;;;;;;;6.97;2.25;;;17.70;81.70;;;;;;6307246;22;20023;-84
2022/10/28 08:32:54;;;;;;;6.65;2.15;;;17.80;78.60;;;;;;6286960;22;20024;-83
2022/10/28 08:35:42;;;;;;;5.93;2.38;;;17.90;72.00;;;;;;6306923;22;20023;-82
2022/10/28 08:38:32;;;;;;;9.95;2.47;;;18.00;67.40;;;;;;6307391;22;20024;-83
2022/10/28 08:41:32;;;;;;;7.05;1.98;;;18.20;60.80;;;;;;6284817;22;20113;-82
2022/10/28 08:44:34;;;;;;;11.20;2.70;;;18.30;54.30;;;;;;6307321;22;20035;-81
2022/10/28 08:47:35;;;;;;;10.57;2.30;;;18.40;52.50;;;;;;6307468;22;20038;-82
2022/10/28 08:50:26;;;;;;;10.10;2.60;;;18.50;51.00;;;;;;6285174;22;20084;-83
2022/10/28 08:53:22;;;;;;;8.30;2.65;;;18.60;45.80;;;;;;6285235;22;20020;-83
2022/10/28 08:56:22;;;;;;;7.78;2.38;;;18.70;43.70;;;;;;6285104;22;20027;-81
2022/10/28 08:59:14;;;;;;;9.63;2.67;;;18.90;41.00;;;;;;6307904;22;20034;-85
2022/10/28 09:02:20;;;;;;;12.75;2.50;;;19.00;36.60;;;;;;6286445;22;20088;-85
2022/10/28 09:05:22;;;;;;;7.40;2.50;;;19.10;32.60;;;;;;6285691;22;20047;-84
2022/10/28 09:08:40;;;;;;;10.35;2.40;;;19.30;41.00;;;;;;6285066;22;20023;-84
2022/10/28 09:12:05;;;;;;;8.50;2.40;;;19.50;25.60;;;;;;6307989;22;20033;-84
2022/10/28 09:15:13;;;;;;;8.52;2.30;;;19.60;21.50;;;;;;6269074;22;20026;-84
2022/10/28 09:18:23;;;;;;;9.88;2.90;;;19.80;19.50;;;;;;6307585;22;20069;-83
2022/10/28 09:21:31;;;;;;;7.68;2.25;;;19.80;17.80;;;;;;6307328;22;20036;-81
2022/10/28 09:24:23;;;;;;;10.63;3.15;;;19.90;15.60;;;;;;6285846;22;20033;-83
2022/10/28 09:27:36;;;;;;;8.93;2.15;;;20.00;13.70;;;;;;6285102;22;20038;-82
2022/10/28 09:30:32;;;;;;;7.53;2.33;;;20.00;10.80;;;;;;6308158;22;20026;-83
2022/10/28 09:33:26;;;;;;;4.78;1.73;;;20.10;11.50;;;;;;6306223;22;20038;-82
2022/10/28 09:36:22;;;;;;;11.23;2.67;;;20.40;12.60;;;;;;6286682;22;20483;-82
2022/10/28 09:39:41;;;;;;;10.30;2.55;;;20.60;9.60;;;;;;6284769;22;20395;-82
2022/10/28 09:42:36;;;;;;;9.27;2.50;;;20.70;9.40;;;;;;6305917;22;20023;-82
2022/10/28 09:45:28;;;;;;;6.50;2.33;;;21.10;9.80;;;;;;6307255;22;20430;-83
2022/10/28 09:48:36;;;;;;;19.20;2.90;;;22.40;5.20;;;;;;6307815;22;20027;-81
2022/10/28 09:51:27;;;;;;;11.02;2.53;;;23.20;1.00;;;;;;6306898;22;20026;-83
2022/10/28 09:54:18;;;;;;;7.38;2.38;;;23.30;1.00;;;;;;6306216;22;20473;-83
2022/10/28 09:57:06;;;;;;;8.32;2.38;;;23.10;1.00;;;;;;6307213;22;20023;-84
2022/10/28 09:59:53;;;;;;;5.57;1.90;;;22.40;1.00;;;;;;6308167;22;20023;-85
2022/10/28 10:02:41;;;;;;;9.82;2.25;;;22.30;1.00;;;;;;6307280;22;20220;-84
2022/10/28 10:05:31;;;;;;;7.10;2.05;;;22.50;1.00;;;;;;6284845;22;20158;-84
2022/10/28 10:08:20;;;;;;;11.77;2.20;;;22.70;1.00;;;;;;6305763;22;20094;-83
2022/10/28 10:11:33;;;;;;;8.43;2.63;;;22.40;1.00;;;;;;6305509;22;20054;-82
2022/10/28 10:14:29;;;;;;;8.40;2.15;;;22.20;1.00;;;;;;6306572;22;20126;-82
2022/10/28 10:17:21;;;;;;;8.88;2.47;;;21.80;1.00;;;;;;6267851;22;20050;-83
2022/10/28 10:20:11;;;;;;;5.60;2.08;;;21.60;1.00;;;;;;6307572;22;20037;-83
2022/10/28 10:22:58;;;;;;;4.90;2.03;;;21.50;1.00;;;;;;6308801;22;20046;-85
2022/10/28 10:25:57;;;;;;;6.72;2.28;;;21.60;1.00;;;;;;6306354;22;20311;-83
2022/10/28 10:28:47;;;;;;;9.93;2.05;;;22.00;1.00;;;;;;6305214;22;20094;-84
2022/10/28 10:31:39;;;;;;;;;;;22.10;1.00;;;;;;6286622;22;20023;-84
2022/10/28 10:34:28;;;;;;;9.40;2.60;;;22.30;1.00;;;;;;6306504;22;20051;-84
2022/10/28 10:37:25;;;;;;;9.38;2.53;;;22.20;1.00;;;;;;6290133;22;20023;-83
2022/10/28 10:40:23;;;;;;;6.40;2.20;;;22.20;1.00;;;;;;6304513;22;20124;-85
2022/10/28 10:43:18;;;;;;;5.93;1.90;;;22.00;1.00;;;;;;6307572;22;20394;-86
2022/10/28 10:46:15;;;;;;;7.95;2.30;;;21.80;1.00;;;;;;6307146;22;20191;-84
2022/10/28 10:49:13;;;;;;;5.32;1.60;;;21.90;1.00;;;;;;6307476;22;20054;-85
2022/10/28 10:52:24;;;;;;;7.97;2.55;;;22.00;1.00;;;;;;6305801;22;20029;-84
2022/10/28 10:55:26;;;;;;;8.47;2.23;;;22.30;1.00;;;;;;6286284;22;20027;-85
2022/10/28 10:58:20;;;;;;;7.38;2.17;;;22.60;1.00;;;;;;6308534;22;20295;-84
2022/10/28 11:01:15;;;;;;;7.93;2.10;;;23.00;1.00;;;;;;6306341;22;20392;-84
2022/10/28 11:04:13;;;;;;;9.32;2.05;;;23.10;1.00;;;;;;6310016;22;20107;-86
2022/10/28 11:07:00;;;;;;;6.88;2.50;;;22.80;1.00;;;;;;6306932;22;20102;-84
2022/10/28 11:09:49;;;;;;;7.43;2.30;;;23.40;1.00;;;;;;6305859;22;20031;-86
2022/10/28 11:12:37;;;;;;;10.15;1.73;;;23.50;1.00;;;;;;6308039;22;20024;-84
2022/10/28 11:15:29;;;;;;;7.55;2.15;;;23.40;1.00;;;;;;6308362;22;20019;-87
2022/10/28 11:18:20;;;;;;;8.95;1.90;;;23.20;1.00;;;;;;6306370;22;20575;-83
2022/10/28 11:21:41;;;;;;;10.15;2.20;;;23.00;1.00;;;;;;6284284;22;20053;-85
2022/10/28 11:24:48;;;;;;;10.10;2.67;;;22.80;1.00;;;;;;6307595;22;20102;-86
2022/10/28 11:28:26;;;;;;;16.08;2.70;;;22.60;1.00;;;;;;6304170;22;20023;-88
2022/10/28 11:31:35;;;;;;;7.22;2.10;;;22.40;1.00;;;;;;6155063;23;20117;-83
2022/10/28 11:34:25;;;;;;;15.25;2.15;;;22.20;1.00;;;;;;6153480;23;20084;-87
2022/10/28 11:37:39;;;;;;;11.02;2.55;;;22.20;1.00;;;;;;6306590;22;20085;-85
2022/10/28 11:41:08;;;;;;;11.73;2.65;;;22.20;1.00;;;;;;6307832;22;20476;-84
2022/10/28 11:43:59;;;;;;;11.30;2.13;;;22.30;1.00;;;;;;6306592;22;20037;-86
2022/10/28 11:47:09;;;;;;;10.25;2.45;;;22.20;1.00;;;;;;6309589;22;20295;-87
2022/10/28 11:50:16;;;;;;;8.15;2.65;;;22.10;1.00;;;;;;6305055;22;20023;-84
2022/10/28 11:53:21;;;;;;;9.38;2.25;;;22.00;1.00;;;;;;6305544;22;20042;-85
2022/10/28 11:56:23;;;;;;;12.70;2.75;;;22.00;1.00;;;;;;6307349;22;20023;-85
2022/10/28 11:59:16;;;;;;;5.35;2.20;;;22.00;1.00;;;;;;6306667;22;20034;-85
2022/10/28 12:02:28;;;;;;;10.32;2.17;;;22.10;1.00;;;;;;6306708;22;20095;-84
2022/10/28 12:05:29;;;;;;;8.45;2.17;;;22.20;1.00;;;;;;6308348;22;20027;-86
2022/10/28 12:08:52;;;;;;;12.00;2.45;;;22.30;1.00;;;;;;6303584;22;20119;-84
2022/10/28 12:12:06;;;;;;;9.95;2.10;;;22.40;1.00;;;;;;6305391;22;20023;-83
2022/10/28 12:15:12;;;;;;;10.85;2.25;;;22.60;1.00;;;;;;6301324;22;20033;-81
2022/10/28 12:18:24;;;;;;;9.85;2.53;;;23.80;1.00;;;;;;6308132;22;20019;-84
2022/10/28 12:21:36;;;;;;;12.65;2.45;;;26.00;1.00;;;;;;6291729;22;20027;-84
2022/10/28 12:24:24;;;;;;;9.25;2.42;;;27.30;1.00;;;;;;6308872;22;20310;-84
2022/10/28 12:27:22;;;;;;;11.82;2.15;;;27.80;1.00;;;;;;6284721;22;20038;-85
2022/10/28 12:30:12;;;;;;;8.15;2.22;;;28.40;1.00;;;;;;6308883;22;20061;-83
2022/10/28 12:33:06;;;;;;;10.32;2.97;;;27.90;1.00;;;;;;6307382;22;20023;-83
2022/10/28 12:36:07;;;;;;;8.98;2.38;;;28.40;1.00;;;;;;6307914;22;20288;-83
2022/10/28 12:39:08;;;;;;;13.47;2.33;;;29.10;1.00;;;;;;6307782;22;20019;-84
2022/10/28 12:42:21;;;;;;;5.03;2.15;;;28.70;1.00;;;;;;6309424;22;20118;-82
2022/10/28 12:45:16;;;;;;;13.27;2.35;;;28.30;1.00;;;;;;6307945;22;20057;-84
2022/10/28 12:48:17;;;;;;;9.25;2.22;;;28.00;1.00;;;;;;6308716;22;20084;-83
2022/10/28 12:51:07;;;;;;;8.18;2.67;;;27.60;1.00;;;;;;6307187;22;20023;-84
2022/10/28 12:54:02;;;;;;;12.13;2.05;;;28.10;1.00;;;;;;6307155;22;20033;-84
2022/10/28 12:56:55;;;;;;;10.05;2.20;;;28.90;1.00;;;;;;6287080;22;20029;-84
2022/10/28 12:59:58;;;;;;;8.32;2.60;;;29.20;1.00;;;;;;6307780;22;20050;-83
2022/10/28 13:03:06;;;;;;;6.25;2.03;;;30.60;1.00;;;;;;6306195;22;20036;-82
2022/10/28 13:06:00;;;;;;;10.10;1.90;;;31.40;1.00;;;;;;6307727;22;20053;-82
2022/10/28 13:09:16;;;;;;;5.85;2.10;;;30.60;1.00;;;;;;6306194;22;20049;-82
2022/10/28 13:12:21;;;;;;;9.73;2.40;;;30.10;1.00;;;;;;6307809;22;20033;-82
2022/10/28 13:15:20;;;;;;;11.32;2.22;;;28.50;1.00;;;;;;6309964;22;20034;-82
2022/10/28 13:18:55;;;;;;;9.60;2.10;;;27.20;1.00;;;;;;6310072;22;20023;-83
2022/10/28 13:21:57;;;;;;;8.45;2.42;;;28.80;1.00;;;;;;6157607;22;20029;-83
2022/10/28 13:24:44;;;;;;;;;;;29.60;1.00;;;;;;6307727;22;20050;-86
2022/10/28 13:27:31;;;;;;;11.43;2.33;;;30.00;1.00;;;;;;6307767;22;19925;-84
2022/10/28 13:30:22;;;;;;;11.90;2.30;;;30.80;1.00;;;;;;6286624;22;20089;-83
2022/10/28 13:33:20;;;;;;;10.85;2.25;;;30.70;1.00;;;;;;6306297;22;20084;-83
2022/10/28 13:36:24;;;;;;;11.43;2.80;;;30.10;1.00;;;;;;6308396;22;20030;-84
2022/10/28 13:39:40;;;;;;;10.60;2.80;;;28.50;1.00;;;;;;6308730;22;20034;-84
2022/10/28 13:42:27;;;;;;;8.90;2.22;;;27.10;1.00;;;;;;6307746;22;20102;-85
2022/10/28 13:45:57;;;;;;;9.13;2.33;;;26.50;1.00;;;;;;6307053;22;20081;-82
2022/10/28 13:48:45;;;;;;;10.68;2.95;;;26.20;1.00;;;;;;6153946;23;20029;-84
2022/10/28 13:51:42;;;;;;;9.95;3.47;;;26.30;1.00;;;;;;6153782;23;20029;-83
2022/10/28 13:54:54;;;;;;;5.97;2.67;;;26.60;1.00;;;;;;6306712;22;20096;-86
2022/10/28 13:57:45;;;;;;;12.75;2.78;;;27.90;1.00;;;;;;6284507;22;20019;-82
2022/10/28 14:00:35;;;;;;;9.68;3.38;;;29.00;1.00;;;;;;6307646;22;20023;-84
2022/10/28 14:03:26;;;;;;;10.30;2.28;;;29.00;1.00;;;;;;6308715;22;20098;-84
2022/10/28 14:06:30;;;;;;;8.90;2.85;;;28.10;1.00;;;;;;6307018;22;20023;-83
2022/10/28 14:09:23;;;;;;;10.15;2.60;;;26.90;1.00;;;;;;6306860;22;20118;-83
2022/10/28 14:12:29;;;;;;;18.33;3.03;;;26.30;1.00;;;;;;6308305;22;20311;-82
2022/10/28 14:15:32;;;;;;;12.77;2.38;;;26.10;1.00;;;;;;6285404;22;20027;-83
2022/10/28 14:18:22;;;;;;;14.20;3.47;;;26.50;1.00;;;;;;6308134;22;20023;-83
2022/10/28 14:21:51;;;;;;;9.38;2.40;;;26.60;1.00;;;;;;6291696;22;20037;-84
2022/10/28 14:24:45;;;;;;;10.98;2.45;;;26.40;1.00;;;;;;6305909;22;20057;-83
2022/10/28 14:27:42;;;;;;;10.07;2.28;;;25.90;1.00;;;;;;6308666;22;20111;-83
2022/10/28 14:30:29;;;;;;;14.63;2.78;;;25.60;1.00;;;;;;6307667;22;20019;-85
2022/10/28 14:33:20;;;;;;;12.40;2.83;;;25.30;1.00;;;;;;6306336;22;20027;-84
2022/10/28 14:36:27;;;;;;;10.27;2.58;;;25.40;1.00;;;;;;6308520;22;20019;-85
2022/10/28 14:39:17;;;;;;;11.68;2.55;;;25.40;1.00;;;;;;6284789;22;20023;-82
2022/10/28 14:42:34;;;;;;;16.10;3.15;;;25.10;1.00;;;;;;6308719;22;20097;-83
2022/10/28 14:45:48;;;;;;;12.00;2.47;;;24.80;1.00;;;;;;6307832;22;20027;-83
2022/10/28 14:48:55;;;;;;;14.05;2.70;;;24.50;1.00;;;;;;6284175;22;20051;-84
2022/10/28 14:51:43;;;;;;;9.25;2.83;;;24.20;1.00;;;;;;6307493;22;20109;-83
2022/10/28 14:54:36;;;;;;;10.40;2.90;;;24.10;1.00;;;;;;6284201;22;20019;-83
2022/10/28 14:57:31;;;;;;;6.63;2.83;;;23.90;1.00;;;;;;6306567;22;20030;-82
2022/10/28 15:01:00;;;;;;;13.35;2.83;;;23.80;1.00;;;;;;6305984;22;20027;-83
2022/10/28 15:03:51;;;;;;;17.45;3.60;;;23.60;1.00;;;;;;6304167;22;20442;-83
2022/10/28 15:07:00;;;;;;;14.73;2.90;;;23.40;1.00;;;;;;6304949;22;20102;-83
2022/10/28 15:09:52;;;;;;;11.48;2.90;;;23.40;1.00;;;;;;6306780;22;20023;-82